Time;durP1;ratioP1;P1;durP2;ratioP2;P2;SDS_P1;SDS_P2;PMS_P1;PMS_P2;Temp;Humidity;BMP_temperature;BMP_pressure;BME280_temperature;BME280_humidity;BME280_pressure;Samples;Min_cycle;Max_cycle;Signal;HPM_P1;HPM_P2
2022/05/18 00:01:45;;;;;;;3.58;2.20;;;;;;;18.61;nan;100922.59;5024085;28;20041;-81
2022/05/18 00:04:11;;;;;;;4.05;2.15;;;;;;;18.71;nan;100929.47;5030828;28;20037;-80
2022/05/18 00:06:36;;;;;;;3.42;2.00;;;;;;;18.68;nan;100926.16;5037810;28;20037;-81
2022/05/18 00:09:01;;;;;;;3.17;1.88;;;;;;;18.64;nan;100929.44;5037190;28;20069;-82
2022/05/18 00:11:27;;;;;;;4.28;2.20;;;;;;;18.60;nan;100931.66;5038213;28;20165;-81
2022/05/18 00:13:54;;;;;;;3.42;1.95;;;;;;;18.58;nan;100930.19;5036516;28;20034;-80
2022/05/18 00:16:22;;;;;;;2.95;2.00;;;;;;;18.52;nan;100936.31;5040557;28;20045;-81
2022/05/18 00:18:48;;;;;;;5.03;2.05;;;;;;;18.48;nan;100935.06;5040605;28;20512;-81
2022/05/18 00:21:13;;;;;;;3.05;1.70;;;;;;;18.43;nan;100936.47;5035073;28;20060;-81
2022/05/18 00:23:39;;;;;;;3.78;2.03;;;;;;;18.29;nan;100950.78;5040332;28;20044;-80
2022/05/18 00:26:06;;;;;;;3.33;1.92;;;;;;;18.21;nan;100940.19;5038569;28;20056;-82
2022/05/18 00:28:32;;;;;;;4.38;2.30;;;;;;;18.10;nan;100946.88;5011591;28;20034;-81
2022/05/18 00:30:58;;;;;;;3.33;2.08;;;;;;;18.00;nan;100949.06;5017921;28;20092;-80
2022/05/18 00:33:24;;;;;;;3.63;2.17;;;;;;;17.83;nan;100946.63;5037426;28;20042;-81
2022/05/18 00:35:50;;;;;;;2.13;1.80;;;;;;;17.81;nan;100945.97;5034048;28;20485;-80
2022/05/18 00:38:15;;;;;;;2.90;1.80;;;;;;;17.74;nan;100945.03;5034068;28;20072;-81
2022/05/18 00:40:44;;;;;;;3.80;1.90;;;;;;;17.76;nan;100951.03;5035411;28;20786;-80
2022/05/18 00:43:29;;;;;;;3.75;2.20;;;;;;;17.78;nan;100958.84;5016960;28;20048;-82
2022/05/18 00:45:55;;;;;;;3.88;2.22;;;;;;;17.70;nan;100950.94;5034591;28;20041;-80
2022/05/18 00:48:21;;;;;;;3.83;2.08;;;;;;;17.80;nan;100947.00;5041987;28;20030;-80
2022/05/18 00:50:47;;;;;;;3.63;2.10;;;;;;;17.87;nan;100956.94;5042929;28;20033;-80
2022/05/18 00:53:18;;;;;;;3.22;2.00;;;;;;;17.88;nan;100948.72;5038315;28;20038;-80
2022/05/18 00:55:49;;;;;;;2.38;1.90;;;;;;;17.90;nan;100953.88;5033294;28;20406;-81
2022/05/18 00:58:31;;;;;;;3.92;2.42;;;;;;;17.86;nan;100945.41;5032870;28;20053;-80
2022/05/18 01:00:57;;;;;;;3.58;2.05;;;;;;;17.85;nan;100946.41;5047947;28;20403;-80
2022/05/18 01:03:31;;;;;;;2.92;2.03;;;;;;;17.79;nan;100947.16;5033355;28;20045;-82
2022/05/18 01:06:17;;;;;;;3.63;1.80;;;;;;;17.76;nan;100945.69;5033893;28;20403;-80
2022/05/18 01:08:54;;;;;;;2.33;1.70;;;;;;;17.66;nan;100950.47;5045373;28;20036;-81
2022/05/18 01:11:20;;;;;;;3.80;2.22;;;;;;;17.59;nan;100945.09;5041966;28;20041;-81
2022/05/18 01:13:45;;;;;;;3.13;1.75;;;;;;;17.54;nan;100935.94;5033737;28;20131;-80
2022/05/18 01:16:11;;;;;;;3.15;2.00;;;;;;;17.44;nan;100941.59;5034231;28;20041;-81
2022/05/18 01:18:36;;;;;;;4.03;2.20;;;;;;;17.37;nan;100938.81;5035575;28;20044;-80
2022/05/18 01:21:02;;;;;;;4.90;2.40;;;;;;;17.30;nan;100939.75;5024506;28;20597;-80
2022/05/18 01:23:30;;;;;;;7.20;3.10;;;;;;;17.30;nan;100937.09;5033884;28;20037;-80
2022/05/18 01:26:18;;;;;;;5.85;2.85;;;;;;;17.34;nan;100935.72;5040827;28;20052;-81
2022/05/18 01:28:57;;;;;;;3.95;2.35;;;;;;;17.43;nan;100926.56;5044101;28;20033;-80
2022/05/18 01:31:57;;;;;;;4.55;1.92;;;;;;;17.53;nan;100937.78;5035037;28;20029;-82
2022/05/18 01:34:25;;;;;;;3.00;1.83;;;;;;;17.60;nan;100938.69;5014914;28;20033;-80
2022/05/18 01:36:51;;;;;;;3.47;2.05;;;;;;;17.59;nan;100931.72;5012317;28;20056;-82
2022/05/18 01:39:32;;;;;;;4.43;2.47;;;;;;;17.56;nan;100926.72;5029412;28;20037;-81
2022/05/18 01:42:06;;;;;;;4.47;2.60;;;;;;;17.49;nan;100928.47;5028651;28;20710;-80
2022/05/18 01:44:38;;;;;;;4.50;2.45;;;;;;;17.41;nan;100936.63;5032225;28;20044;-82
2022/05/18 01:47:04;;;;;;;5.22;2.63;;;;;;;17.46;nan;100933.38;5046839;28;20033;-80
2022/05/18 01:49:30;;;;;;;4.05;2.45;;;;;;;17.50;nan;100929.34;5037722;28;20041;-80
2022/05/18 01:51:57;;;;;;;5.03;2.78;;;;;;;17.47;nan;100935.03;5038712;28;20493;-80
2022/05/18 01:54:23;;;;;;;6.05;2.45;;;;;;;17.50;nan;100938.19;5042608;28;20126;-81
2022/05/18 01:56:48;;;;;;;5.60;2.50;;;;;;;17.47;nan;100937.72;5055401;28;20042;-82
2022/05/18 01:59:14;;;;;;;4.22;2.00;;;;;;;17.52;nan;100943.31;5038309;28;20148;-80
2022/05/18 02:01:40;;;;;;;2.88;1.80;;;;;;;17.47;nan;100948.41;5032976;28;20029;-79
2022/05/18 02:04:05;;;;;;;2.75;1.70;;;;;;;17.44;nan;100951.47;5035557;28;20441;-80
2022/05/18 02:06:32;;;;;;;4.82;2.20;;;;;;;17.37;nan;100954.03;5038357;28;20074;-80
2022/05/18 02:08:58;;;;;;;3.42;2.17;;;;;;;17.25;nan;100958.19;5031632;28;20087;-80
2022/05/18 02:11:24;;;;;;;4.53;2.20;;;;;;;17.22;nan;100964.75;5045095;28;20478;-80
2022/05/18 02:13:51;;;;;;;3.05;2.00;;;;;;;17.18;nan;100969.66;5016945;28;20503;-81
2022/05/18 02:16:16;;;;;;;3.85;2.22;;;;;;;17.12;nan;100961.53;5034651;28;20037;-81
2022/05/18 02:18:42;;;;;;;3.72;2.75;;;;;;;17.06;nan;100976.44;5038373;28;20041;-81
2022/05/18 02:21:10;;;;;;;3.50;2.40;;;;;;;17.00;nan;100969.16;5034166;28;20037;-80
2022/05/18 02:23:38;;;;;;;5.13;2.35;;;;;;;16.95;nan;100963.56;5018677;28;20038;-81
2022/05/18 02:26:12;;;;;;;2.60;1.85;;;;;;;16.92;nan;100970.09;5017821;28;20095;-81
2022/05/18 02:28:37;;;;;;;4.07;2.17;;;;;;;16.89;nan;100964.25;5033468;28;20041;-82
2022/05/18 02:31:03;;;;;;;4.03;2.70;;;;;;;16.86;nan;100970.81;5015838;28;20502;-81
2022/05/18 02:33:29;;;;;;;4.40;2.63;;;;;;;16.90;nan;100965.91;5036295;28;20052;-80
2022/05/18 02:35:54;;;;;;;2.30;1.70;;;;;;;16.92;nan;100961.22;5033856;28;20041;-82
2022/05/18 02:38:19;;;;;;;3.78;2.40;;;;;;;16.90;nan;100964.09;5016636;28;20052;-80
2022/05/18 02:40:45;;;;;;;3.42;2.10;;;;;;;16.95;nan;100969.72;5028534;28;20641;-80
2022/05/18 02:43:10;;;;;;;7.18;2.10;;;;;;;16.93;nan;100963.72;5031262;28;20064;-82
2022/05/18 02:45:35;;;;;;;4.43;2.38;;;;;;;16.90;nan;100963.25;5032951;28;20033;-80
2022/05/18 02:48:01;;;;;;;3.53;2.20;;;;;;;16.92;nan;100958.56;5033698;28;20040;-80
2022/05/18 02:50:28;;;;;;;2.50;1.67;;;;;;;16.89;nan;100965.09;5039898;28;20029;-81
2022/05/18 02:52:53;;;;;;;4.70;2.10;;;;;;;16.95;nan;100963.56;5036893;28;20033;-81
2022/05/18 02:58:02;;;;;;;2.70;1.92;;;;;;;17.04;nan;100973.16;5039016;28;20037;-80
2022/05/18 03:00:28;;;;;;;4.10;1.90;;;;;;;16.98;nan;100973.88;5023303;28;20037;-81
2022/05/18 03:02:54;;;;;;;2.72;1.98;;;;;;;16.93;nan;100978.94;5031743;28;20073;-80
2022/05/18 03:05:19;;;;;;;3.33;2.00;;;;;;;16.90;nan;100973.94;5035383;28;20105;-81
2022/05/18 03:07:44;;;;;;;2.65;1.90;;;;;;;16.89;nan;100974.94;5023191;28;20119;-81
2022/05/18 03:10:10;;;;;;;4.80;2.17;;;;;;;16.84;nan;100978.16;5046306;28;20608;-80
2022/05/18 03:12:36;;;;;;;2.45;1.85;;;;;;;16.76;nan;100979.06;5024028;28;20035;-80
2022/05/18 03:15:01;;;;;;;3.58;2.00;;;;;;;16.70;nan;100978.94;5037672;28;20483;-82
2022/05/18 03:17:27;;;;;;;3.03;2.00;;;;;;;16.70;nan;100986.94;5056668;28;20093;-81
2022/05/18 03:19:52;;;;;;;3.05;2.03;;;;;;;16.69;nan;100990.63;5025746;28;20040;-80
2022/05/18 03:25:02;;;;;;;2.88;1.77;;;;;;;16.58;nan;100999.91;5046111;28;20049;-80
2022/05/18 03:27:28;;;;;;;3.78;2.10;;;;;;;16.51;nan;100999.78;5037363;28;20025;-82
2022/05/18 03:29:53;;;;;;;3.40;1.90;;;;;;;16.51;nan;101009.63;5020157;28;20104;-79
2022/05/18 03:32:22;;;;;;;3.40;2.17;;;;;;;16.43;nan;101012.38;5032134;28;20026;-80
2022/05/18 03:34:49;;;;;;;4.30;2.40;;;;;;;16.39;nan;101017.22;5035674;28;20299;-79
2022/05/18 03:37:15;;;;;;;4.20;2.20;;;;;;;16.34;nan;101022.28;5021830;28;20121;-80
2022/05/18 03:39:41;;;;;;;2.83;2.00;;;;;;;16.30;nan;101027.16;5032302;28;20066;-80
2022/05/18 03:42:07;;;;;;;3.22;2.20;;;;;;;16.31;nan;101028.78;5033201;28;20033;-81
2022/05/18 03:44:32;;;;;;;3.03;1.88;;;;;;;16.29;nan;101028.13;5045934;28;20033;-81
2022/05/18 03:46:57;;;;;;;3.20;2.05;;;;;;;16.25;nan;101036.66;5016381;28;20040;-81
2022/05/18 03:49:23;;;;;;;3.70;2.20;;;;;;;16.18;nan;101039.19;5038712;28;20124;-80
2022/05/18 03:51:49;;;;;;;3.30;2.15;;;;;;;16.13;nan;101037.06;5033741;28;20037;-80
2022/05/18 03:54:14;;;;;;;3.25;2.00;;;;;;;16.14;nan;101035.25;5032570;28;20029;-79
2022/05/18 03:56:40;;;;;;;3.90;2.75;;;;;;;16.12;nan;101039.94;5032629;28;20029;-79
2022/05/18 03:59:05;;;;;;;4.47;3.10;;;;;;;16.05;nan;101045.13;5033640;28;20398;-80
2022/05/18 04:01:30;;;;;;;3.70;2.85;;;;;;;15.99;nan;101053.00;5031237;28;20041;-80
2022/05/18 04:03:56;;;;;;;3.90;2.85;;;;;;;15.92;nan;101053.69;5037121;28;20045;-80
2022/05/18 04:06:21;;;;;;;3.70;2.85;;;;;;;15.84;nan;101056.38;5033917;28;20558;-80
2022/05/18 04:08:46;;;;;;;5.45;2.97;;;;;;;15.78;nan;101057.09;5031182;28;20124;-80
2022/05/18 04:11:13;;;;;;;3.95;2.85;;;;;;;15.77;nan;101051.94;5031983;28;20045;-79
2022/05/18 04:13:38;;;;;;;3.47;2.60;;;;;;;15.79;nan;101057.91;5042542;28;20037;-80
2022/05/18 04:16:05;;;;;;;4.35;2.88;;;;;;;15.78;nan;101048.25;5033023;28;20033;-81
2022/05/18 04:18:32;;;;;;;3.80;2.90;;;;;;;15.79;nan;101053.41;5030799;28;20602;-80
2022/05/18 04:20:59;;;;;;;5.68;2.92;;;;;;;15.77;nan;101057.25;5018644;28;20494;-79
2022/05/18 04:23:24;;;;;;;4.43;3.75;;;;;;;15.73;nan;101058.59;5032839;28;20068;-79
2022/05/18 04:25:50;;;;;;;5.10;3.78;;;;;;;15.73;nan;101071.94;5040162;28;20065;-80
2022/05/18 04:28:17;;;;;;;5.32;3.72;;;;;;;15.71;nan;101069.47;5016478;28;20029;-80
2022/05/18 04:30:45;;;;;;;3.78;2.95;;;;;;;15.74;nan;101070.94;5029036;28;20064;-79
2022/05/18 04:33:12;;;;;;;;;;;;;;;15.70;nan;101073.09;5033932;28;20044;-80
2022/05/18 04:35:37;;;;;;;5.85;3.80;;;;;;;15.67;nan;101078.75;5015105;28;19987;-80
2022/05/18 04:38:02;;;;;;;5.60;3.65;;;;;;;15.68;nan;101081.28;5033524;28;20029;-79
2022/05/18 04:40:27;;;;;;;5.85;4.28;;;;;;;15.71;nan;101082.78;5035317;28;20061;-80
2022/05/18 04:42:53;;;;;;;4.68;3.78;;;;;;;15.75;nan;101085.94;5015276;28;20033;-80
2022/05/18 04:45:21;;;;;;;7.22;4.32;;;;;;;15.78;nan;101080.25;5038158;28;20033;-81
2022/05/18 04:47:47;;;;;;;5.93;3.42;;;;;;;15.80;nan;101092.44;5034100;28;20075;-80
2022/05/18 04:50:13;;;;;;;4.88;3.05;;;;;;;15.90;nan;101092.22;5038567;28;20128;-81
2022/05/18 04:52:38;;;;;;;4.75;3.20;;;;;;;15.97;nan;101087.84;5030998;28;21253;-79
2022/05/18 04:55:04;;;;;;;5.97;4.03;;;;;;;16.04;nan;101085.31;5036535;28;20036;-80
2022/05/18 04:57:30;;;;;;;4.32;3.17;;;;;;;16.09;nan;101086.47;5037748;28;20040;-80
2022/05/18 04:59:56;;;;;;;4.88;3.13;;;;;;;16.14;nan;101088.59;5037978;28;21823;-80
2022/05/18 05:02:21;;;;;;;5.25;3.67;;;;;;;16.22;nan;101090.41;5031949;28;20076;-79
2022/05/18 05:04:46;;;;;;;6.80;3.70;;;;;;;16.25;nan;101082.84;5031250;28;20518;-80
2022/05/18 05:07:12;;;;;;;5.68;3.67;;;;;;;16.33;nan;101085.50;5032913;28;20124;-81
2022/05/18 05:09:38;;;;;;;5.82;4.20;;;;;;;16.38;nan;101090.31;5036706;28;20036;-80
2022/05/18 05:12:05;;;;;;;7.72;4.05;;;;;;;16.46;nan;101094.75;5041643;28;20033;-79
2022/05/18 05:14:33;;;;;;;4.97;3.30;;;;;;;16.57;nan;101102.38;5044075;28;20116;-78
2022/05/18 05:17:00;;;;;;;6.18;4.13;;;;;;;16.67;nan;101099.47;5021718;28;20098;-80
2022/05/18 05:19:25;;;;;;;3.78;3.08;;;;;;;16.86;nan;101095.53;5035896;28;20033;-79
2022/05/18 05:21:50;;;;;;;3.67;2.85;;;;;;;17.03;nan;101102.38;5042000;28;20041;-80
2022/05/18 05:24:16;;;;;;;4.85;3.17;;;;;;;17.22;nan;101101.03;5021421;28;20037;-79
2022/05/18 05:26:43;;;;;;;5.10;3.10;;;;;;;17.48;nan;101103.31;5021780;28;20349;-79
2022/05/18 05:29:10;;;;;;;3.85;2.53;;;;;;;17.80;nan;101103.94;5034949;28;20041;-78
2022/05/18 05:31:36;;;;;;;4.25;2.80;;;;;;;18.14;nan;101107.91;5029800;28;20029;-79
2022/05/18 05:34:02;;;;;;;4.05;2.55;;;;;;;18.48;nan;101115.31;5026600;28;20052;-78
2022/05/18 05:36:28;;;;;;;3.33;2.65;;;;;;;18.81;nan;101104.97;5030975;28;20030;-79
2022/05/18 05:38:53;;;;;;;8.70;2.97;;;;;;;19.23;nan;101105.94;5028414;28;20116;-79
2022/05/18 05:41:19;;;;;;;4.72;2.80;;;;;;;19.75;nan;101103.00;5032004;28;20095;-79
2022/05/18 05:43:45;;;;;;;3.55;2.17;;;;;;;20.24;nan;101110.06;5033778;28;20052;-78
2022/05/18 05:46:14;;;;;;;3.55;2.30;;;;;;;20.74;nan;101108.75;5033543;28;20082;-79
2022/05/18 05:48:42;;;;;;;3.55;2.15;;;;;;;21.18;nan;101118.06;5031656;28;20387;-79
2022/05/18 05:51:13;;;;;;;3.03;2.00;;;;;;;21.56;nan;101116.63;5032527;28;20038;-80
2022/05/18 05:53:39;;;;;;;3.53;2.20;;;;;;;21.81;nan;101117.59;5033552;28;20039;-79
2022/05/18 05:56:06;;;;;;;3.72;2.50;;;;;;;22.06;nan;101109.63;5030993;28;20045;-79
2022/05/18 05:58:33;;;;;;;4.63;2.40;;;;;;;22.35;nan;101110.16;5029538;28;20040;-80
2022/05/18 06:00:59;;;;;;;3.83;2.10;;;;;;;22.61;nan;101117.25;5032608;28;20096;-80
2022/05/18 06:03:26;;;;;;;3.50;1.90;;;;;;;22.96;nan;101114.13;5015934;28;20049;-80
2022/05/18 06:05:52;;;;;;;4.90;3.40;;;;;;;23.32;nan;101116.13;5030377;28;20096;-80
2022/05/18 06:08:17;;;;;;;7.30;3.83;;;;;;;23.57;nan;101114.44;5031004;28;20470;-80
2022/05/18 06:10:43;;;;;;;9.57;5.22;;;;;;;24.00;nan;101110.84;5039264;28;20037;-80
2022/05/18 06:13:11;;;;;;;5.80;3.42;;;;;;;24.36;nan;101107.28;5033957;28;20180;-80
2022/05/18 06:15:37;;;;;;;6.20;3.40;;;;;;;24.68;nan;101113.28;5033724;28;20183;-80
2022/05/18 06:18:03;;;;;;;12.38;5.43;;;;;;;25.05;nan;101117.72;5037092;28;20061;-80
2022/05/18 06:20:29;;;;;;;8.70;4.50;;;;;;;25.50;nan;101117.16;5023972;28;20051;-80
2022/05/18 06:22:57;;;;;;;5.07;2.83;;;;;;;25.82;nan;101114.91;5019520;28;20034;-80
2022/05/18 06:25:23;;;;;;;3.60;1.95;;;;;;;26.13;nan;101105.53;5035153;28;20044;-81
2022/05/18 06:27:48;;;;;;;2.92;1.80;;;;;;;26.55;nan;101101.72;5032179;28;20650;-80
2022/05/18 06:30:14;;;;;;;2.08;1.40;;;;;;;27.02;nan;101110.38;5029180;28;20032;-80
2022/05/18 06:32:39;;;;;;;1.70;1.33;;;;;;;27.41;nan;101104.19;5012936;28;20033;-81
2022/05/18 06:35:05;;;;;;;2.63;1.70;;;;;;;27.58;nan;101105.00;5013344;28;20080;-82
2022/05/18 06:37:31;;;;;;;2.63;1.40;;;;;;;27.74;nan;101106.84;5030846;28;20576;-82
2022/05/18 06:39:56;;;;;;;2.00;1.30;;;;;;;28.17;nan;101102.50;5015722;28;20052;-82
2022/05/18 06:42:22;;;;;;;2.67;1.60;;;;;;;28.49;nan;101112.63;5033099;28;20045;-80
2022/05/18 06:44:47;;;;;;;2.78;1.42;;;;;;;28.55;nan;101100.69;5037326;28;20041;-83
2022/05/18 06:47:13;;;;;;;2.67;1.40;;;;;;;28.88;nan;101106.97;5032709;28;20036;-82
2022/05/18 06:49:40;;;;;;;3.10;1.27;;;;;;;29.21;nan;101100.44;5034065;28;20164;-81
2022/05/18 06:52:06;;;;;;;2.75;1.50;;;;;;;29.51;nan;101099.00;5031807;28;20034;-82
2022/05/18 06:54:31;;;;;;;2.33;1.27;;;;;;;29.75;nan;101098.59;5030132;28;20040;-82
2022/05/18 06:56:56;;;;;;;1.90;1.05;;;;;;;29.96;nan;101099.47;5038785;28;21634;-81
2022/05/18 06:59:22;;;;;;;2.50;1.30;;;;;;;30.01;nan;101107.66;5016320;28;20060;-81
2022/05/18 07:01:47;;;;;;;2.08;1.20;;;;;;;30.13;nan;101105.53;5029595;28;20285;-81
2022/05/18 07:04:13;;;;;;;1.80;1.30;;;;;;;30.48;nan;101104.78;5028784;28;20672;-81
2022/05/18 07:06:42;;;;;;;2.45;1.33;;;;;;;30.74;nan;101104.00;5039021;28;20045;-81
2022/05/18 07:09:11;;;;;;;3.80;1.30;;;;;;;30.84;nan;101106.75;5025079;28;20129;-81
2022/05/18 07:11:37;;;;;;;2.17;1.05;;;;;;;31.09;nan;101112.22;5028289;28;20087;-81
2022/05/18 07:14:05;;;;;;;2.63;1.52;;;;;;;31.32;nan;101112.72;5038252;28;20092;-81
2022/05/18 07:16:32;;;;;;;3.05;1.17;;;;;;;31.60;nan;101111.28;5015860;28;20029;-81
2022/05/18 07:18:57;;;;;;;2.63;1.35;;;;;;;31.74;nan;101112.34;5029830;28;20040;-81
2022/05/18 07:21:25;;;;;;;2.10;1.20;;;;;;;31.81;nan;101119.44;5016832;28;20030;-82
2022/05/18 07:23:51;;;;;;;2.28;1.10;;;;;;;32.00;nan;101120.47;5030780;28;20045;-82
2022/05/18 07:26:18;;;;;;;2.03;1.10;;;;;;;32.01;nan;101119.34;5030545;28;20072;-82
2022/05/18 07:28:43;;;;;;;2.35;1.60;;;;;;;32.18;nan;101121.75;5030254;28;20106;-81
2022/05/18 07:31:09;;;;;;;2.70;1.30;;;;;;;32.50;nan;101123.22;5014504;28;21096;-81
2022/05/18 07:33:35;;;;;;;2.15;1.35;;;;;;;32.68;nan;101122.53;5013202;28;20038;-81
2022/05/18 07:36:01;;;;;;;1.73;1.20;;;;;;;32.79;nan;101124.06;5030085;28;20041;-81
2022/05/18 07:38:29;;;;;;;2.33;1.30;;;;;;;32.93;nan;101128.91;5030645;28;20038;-81
2022/05/18 07:40:55;;;;;;;3.10;1.13;;;;;;;33.05;nan;101134.84;5014056;28;20037;-81
2022/05/18 07:43:21;;;;;;;1.80;1.23;;;;;;;33.14;nan;101127.63;5029475;28;20040;-81
2022/05/18 07:45:47;;;;;;;1.95;1.05;;;;;;;33.25;nan;101133.81;5028732;28;20047;-80
2022/05/18 07:48:13;;;;;;;1.70;1.23;;;;;;;33.32;nan;101133.47;5011227;28;20399;-81
2022/05/18 07:50:39;;;;;;;2.17;1.40;;;;;;;33.18;nan;101128.69;5033174;28;20034;-80
2022/05/18 07:53:04;;;;;;;;;;;;;;;32.94;nan;101130.53;5032095;28;20041;-81
2022/05/18 07:55:30;;;;;;;3.78;1.42;;;;;;;33.02;nan;101132.66;5033666;28;19951;-79
2022/05/18 07:57:55;;;;;;;1.67;1.00;;;;;;;33.43;nan;101135.00;5036486;28;20037;-81
2022/05/18 08:00:23;;;;;;;2.33;1.30;;;;;;;33.95;nan;101140.75;5041730;28;20048;-81
2022/05/18 08:02:49;;;;;;;2.58;1.30;;;;;;;34.08;nan;101130.97;5039131;28;21179;-81
2022/05/18 08:05:15;;;;;;;4.30;1.52;;;;;;;34.44;nan;101136.78;5035838;28;20037;-81
2022/05/18 08:07:45;;;;;;;2.72;1.30;;;;;;;34.61;nan;101133.53;5035865;28;20581;-81
2022/05/18 08:15:41;;;;;;;1.55;1.10;;;;;;;35.40;nan;101138.25;5031296;28;20052;-81
2022/05/18 08:18:06;;;;;;;3.50;1.73;;;;;;;35.25;nan;101133.81;5047573;28;20033;-81
2022/05/18 08:20:31;;;;;;;2.67;1.52;;;;;;;35.53;nan;101132.72;5042678;28;20034;-81
2022/05/18 08:22:57;;;;;;;2.80;1.23;;;;;;;35.97;nan;101136.00;5034307;28;20120;-82
2022/05/18 08:25:22;;;;;;;2.45;1.33;;;;;;;36.21;nan;101137.69;5017898;28;20041;-81
2022/05/18 08:27:49;;;;;;;3.13;1.30;;;;;;;36.39;nan;101136.72;5032932;28;20363;-83
2022/05/18 08:30:18;;;;;;;1.88;1.20;;;;;;;36.66;nan;101138.59;5026531;28;20106;-83
2022/05/18 08:32:44;;;;;;;2.65;1.23;;;;;;;36.92;nan;101141.53;5036990;28;20040;-83
2022/05/18 08:35:13;;;;;;;2.28;1.38;;;;;;;37.22;nan;101136.34;5019728;28;20124;-83
2022/05/18 08:37:41;;;;;;;2.08;1.20;;;;;;;37.07;nan;101131.25;5057425;28;20040;-83
2022/05/18 08:40:14;;;;;;;1.70;1.10;;;;;;;36.85;nan;101124.63;5043687;28;20030;-82
2022/05/18 08:42:39;;;;;;;2.35;1.08;;;;;;;36.92;nan;101129.66;5032823;28;20049;-81
2022/05/18 08:45:06;;;;;;;2.28;1.52;;;;;;;37.52;nan;101123.66;5019239;28;20034;-82
2022/05/18 08:47:42;;;;;;;2.35;1.50;;;;;;;37.97;nan;101130.91;5032832;28;20047;-81
2022/05/18 08:50:13;;;;;;;2.90;1.50;;;;;;;37.68;nan;101126.78;5037188;28;20046;-82
2022/05/18 08:53:03;;;;;;;3.33;1.50;;;;;;;37.55;nan;101127.75;5028912;28;20044;-83
2022/05/18 08:56:17;;;;;;;3.00;1.50;;;;;;;37.09;nan;101115.19;5016942;28;20033;-82
2022/05/18 08:58:49;;;;;;;1.70;1.25;;;;;;;37.23;nan;101115.09;4958710;28;20039;-83
2022/05/18 09:01:20;;;;;;;2.40;1.40;;;;;;;37.59;nan;101118.50;4980075;28;20106;-82
2022/05/18 09:04:15;;;;;;;2.25;1.05;;;;;;;37.82;nan;101123.91;5006429;28;20107;-83
2022/05/18 09:06:53;;;;;;;2.17;1.10;;;;;;;38.56;nan;101119.44;5027648;28;20045;-82
2022/05/18 09:12:14;;;;;;;2.53;1.25;;;;;;;37.88;nan;101128.16;5039308;28;20048;-83
2022/05/18 09:14:42;;;;;;;1.77;1.10;;;;;;;37.89;nan;101127.00;5026736;28;20034;-83
2022/05/18 09:17:27;;;;;;;3.17;1.23;;;;;;;37.93;nan;101127.19;5037112;28;20029;-82
2022/05/18 09:20:00;;;;;;;2.58;1.30;;;;;;;37.71;nan;101122.56;5034989;28;20486;-82
2022/05/18 09:22:55;;;;;;;1.73;1.00;;;;;;;37.95;nan;101125.72;5014039;28;20048;-82
2022/05/18 09:25:35;;;;;;;3.92;1.10;;;;;;;38.49;nan;101122.69;4986787;28;20033;-82
2022/05/18 09:28:01;;;;;;;;;;;;;;;38.76;nan;101123.47;5038825;28;20042;-83
2022/05/18 09:30:32;;;;;;;2.17;1.20;;;;;;;39.19;nan;101117.84;5020960;28;19920;-83
2022/05/18 09:33:06;;;;;;;1.60;0.82;;;;;;;39.39;nan;101115.50;5028453;28;20125;-83
2022/05/18 09:35:31;;;;;;;2.00;1.10;;;;;;;39.76;nan;101115.75;5028069;28;20481;-83
2022/05/18 09:38:05;;;;;;;2.60;1.10;;;;;;;40.01;nan;101119.53;5041665;28;20120;-84
2022/05/18 09:40:41;;;;;;;1.70;0.80;;;;;;;40.60;nan;101113.03;5028327;28;20626;-83
2022/05/18 09:43:18;;;;;;;1.75;0.90;;;;;;;41.02;nan;101122.03;5031466;28;20080;-83
2022/05/18 09:45:47;;;;;;;1.67;1.02;;;;;;;40.47;nan;101115.72;5032410;28;20038;-83
2022/05/18 09:48:24;;;;;;;1.30;0.73;;;;;;;41.07;nan;101112.66;5026502;28;20510;-83
2022/05/18 09:50:50;;;;;;;1.77;0.98;;;;;;;41.56;nan;101108.00;5034741;28;20091;-83
2022/05/18 09:53:17;;;;;;;1.95;0.95;;;;;;;41.83;nan;101111.19;5012882;28;20033;-83
2022/05/18 09:55:46;;;;;;;2.50;1.10;;;;;;;42.07;nan;101109.53;5011626;28;20033;-83
2022/05/18 09:58:21;;;;;;;1.75;1.20;;;;;;;41.70;nan;101113.19;5028427;28;20033;-82
2022/05/18 10:00:47;;;;;;;2.25;0.90;;;;;;;41.29;nan;101105.91;5035331;28;20120;-83
2022/05/18 10:08:54;;;;;;;1.90;1.13;;;;;;;42.23;nan;101110.41;5031687;28;20041;-82
2022/05/18 10:11:33;;;;;;;1.48;1.00;;;;;;;42.17;nan;101109.06;5039062;28;20037;-81
2022/05/18 10:14:11;;;;;;;1.83;1.00;;;;;;;41.45;nan;101106.81;5036469;28;20041;-82
2022/05/18 10:16:58;;;;;;;1.00;0.85;;;;;;;42.23;nan;101113.19;5035473;28;20041;-83
2022/05/18 10:19:35;;;;;;;2.25;0.80;;;;;;;43.04;nan;101101.88;5032108;28;20043;-82
2022/05/18 10:22:04;;;;;;;2.55;1.25;;;;;;;43.88;nan;101101.47;5034357;28;20509;-82
2022/05/18 10:24:40;;;;;;;1.73;0.93;;;;;;;43.86;nan;101092.69;5036556;28;20061;-82
2022/05/18 10:27:18;;;;;;;1.60;0.85;;;;;;;43.94;nan;101095.63;5036214;28;20122;-82
2022/05/18 10:30:10;;;;;;;1.90;1.02;;;;;;;42.99;nan;101102.16;5037522;28;20403;-82
2022/05/18 10:32:51;;;;;;;3.05;1.20;;;;;;;42.57;nan;101092.28;5029492;28;20041;-82
2022/05/18 10:35:44;;;;;;;1.20;0.80;;;;;;;43.22;nan;101091.22;5025934;28;20037;-83
2022/05/18 10:38:28;;;;;;;1.13;0.70;;;;;;;44.72;nan;101080.47;5023966;28;20059;-85
2022/05/18 10:41:02;;;;;;;1.33;0.85;;;;;;;45.34;nan;101079.50;5034736;28;20619;-82
2022/05/18 10:43:46;;;;;;;1.50;0.90;;;;;;;45.96;nan;101076.41;5028979;28;20059;-84
2022/05/18 10:46:26;;;;;;;2.47;1.10;;;;;;;45.44;nan;101078.06;5034296;28;20135;-83
2022/05/18 10:49:00;;;;;;;1.75;0.90;;;;;;;45.13;nan;101075.19;5002595;28;20125;-83
2022/05/18 10:51:32;;;;;;;1.58;0.73;;;;;;;45.03;nan;101064.66;5015264;28;20029;-83
2022/05/18 10:54:21;;;;;;;2.53;1.10;;;;;;;44.98;nan;101064.94;5041036;28;20029;-84
2022/05/18 10:56:47;;;;;;;2.05;1.00;;;;;;;44.36;nan;101062.22;5032500;28;20041;-83
2022/05/18 10:59:30;;;;;;;2.28;0.75;;;;;;;43.81;nan;101058.72;5038917;28;20052;-82
2022/05/18 11:02:04;;;;;;;2.58;0.75;;;;;;;43.71;nan;101060.13;5037340;28;20033;-83
2022/05/18 11:04:52;;;;;;;1.23;0.80;;;;;;;41.48;nan;101049.81;5012521;28;20076;-81
2022/05/18 11:07:21;;;;;;;1.77;0.90;;;;;;;39.68;nan;101053.78;5027093;28;20037;-83
2022/05/18 11:09:46;;;;;;;2.50;1.00;;;;;;;38.80;nan;101045.06;5035533;28;20033;-84
2022/05/18 11:12:46;;;;;;;1.50;0.82;;;;;;;39.19;nan;101056.16;5036045;28;20096;-82
2022/05/18 11:15:42;;;;;;;2.40;1.00;;;;;;;39.58;nan;101037.56;5033579;28;20128;-84
2022/05/18 11:18:33;;;;;;;1.90;1.13;;;;;;;40.34;nan;101042.84;5036124;28;20088;-82
2022/05/18 11:21:12;;;;;;;1.83;1.08;;;;;;;41.64;nan;101039.59;5033323;28;20058;-83
2022/05/18 11:24:08;;;;;;;1.40;0.90;;;;;;;42.48;nan;101036.06;5032760;28;20165;-82
2022/05/18 11:26:56;;;;;;;2.72;0.90;;;;;;;43.73;nan;101031.91;5035393;28;20038;-83
2022/05/18 11:29:42;;;;;;;2.08;0.88;;;;;;;44.59;nan;101030.81;5031609;28;20041;-83
2022/05/18 11:32:17;;;;;;;1.92;1.00;;;;;;;45.61;nan;101034.81;5019031;28;20029;-84
2022/05/18 11:35:06;;;;;;;1.50;1.00;;;;;;;44.26;nan;101037.75;5029428;28;20057;-83
2022/05/18 11:37:38;;;;;;;1.88;0.90;;;;;;;43.92;nan;101040.25;5018312;28;20096;-83
2022/05/18 11:40:07;;;;;;;2.20;1.00;;;;;;;44.21;nan;101038.88;5035250;28;20033;-82
2022/05/18 11:42:59;;;;;;;1.40;0.98;;;;;;;44.67;nan;101032.53;5041184;28;20060;-83
2022/05/18 11:45:44;;;;;;;1.42;0.90;;;;;;;44.84;nan;101029.28;5030513;28;20037;-82
2022/05/18 11:48:39;;;;;;;1.23;0.80;;;;;;;44.84;nan;101032.06;5038472;28;20029;-83
2022/05/18 11:51:19;;;;;;;1.20;0.85;;;;;;;44.30;nan;101021.91;5042081;28;20404;-82
2022/05/18 11:54:14;;;;;;;1.35;0.80;;;;;;;43.61;nan;101018.94;5038172;28;20133;-83
2022/05/18 11:57:01;;;;;;;1.88;0.90;;;;;;;43.64;nan;101026.56;5012439;28;20044;-82
2022/05/18 11:59:57;;;;;;;1.85;1.00;;;;;;;42.93;nan;101018.16;5031599;28;20030;-82
2022/05/18 12:02:59;;;;;;;1.33;0.75;;;;;;;43.64;nan;101007.84;5039326;28;20127;-83
2022/05/18 12:05:33;;;;;;;1.52;0.90;;;;;;;43.67;nan;101001.56;5010873;28;20116;-83
2022/05/18 12:08:25;;;;;;;1.50;0.90;;;;;;;43.64;nan;100998.69;5035177;28;20038;-83
2022/05/18 12:11:18;;;;;;;1.55;0.90;;;;;;;43.46;nan;100995.53;5030464;28;20042;-83
2022/05/18 12:14:01;;;;;;;2.22;0.98;;;;;;;41.99;nan;100995.41;5038881;28;20127;-82
2022/05/18 12:16:51;;;;;;;2.00;1.00;;;;;;;40.62;nan;100995.09;5028188;28;20093;-83